Airfield :
LOGIN :

Register | Disclaimer

   EN    FR    IT 

 










Legend :    VFR   Marginal VFR   IFR   Intensive IFR   Very Intensive IFR
Visi :
Ceiling :
>= 8 km
>= 3000ft
5 to 8 km
1000 to 3000 ft
1500m to 5 km
500 to 1000 ft
800 to 1500m
200 to 500 ft
< 800m
< 200 ft
Symbols :   Thunderstorms  Fog  Heavy snow  Heavy precipitations  Wind > 20 kt
SIGMETs :     Misc.  Thunderstorms  Icing  Turbulence  Mountain Waves  Volcanic Ashes






- Airport Elevation : 2265 ft
- IATA code : CZL


DABC - Mohamed Boudiaf Int. Constantine

CURRENT METAR :
  • 100930Z 31014KT 7000 -RA OVC008 06/05 Q1020

EXPIRED METARs :
  • 100900Z 31013KT 7000 RA SCT020TCU OVC026 06/05 Q1020
  • 100830Z 30012KT 5000 RA FEW015 SCT020TCU OVC030 06/04 Q1020
  • 100800Z 28010KT 6000 RA BKN020 OVC026 06/05 Q1020
  • 100730Z 29009KT 5000 -RA SCT016TCU FEW023CB OVC026 06/05 Q1020
  • 100700Z 31017KT 7000 -RA SCT016TCU FEW023CB OVC026 06/05 Q1020

TAF TAF DABC
Valid from the 10 at 06:00 until the 11 at 06:00 UTC


100500Z 1006/1106 28012KT 9999 FEW013 BKN026
TEMPO 1006/1021 5000 -RA SCT020TCU FEW026CB
BECMG 1007/1009 34014KT
PROB40
TEMPO 1008/1018 29015G30KT 3000 TSGRRA SCT023CB



MET'MAP, your aeronautical weather chart ! - Copyright ORBIFLY December 2007 - Disclaimer

ORBIFLY MET'MAP TEAM :

Programming & Development : Alexandra Zaïnal
Concept & original design : Baudouin d'Aumeries
Assistance for programming : Marc-Olivier Méhu
Technical & hardware support : Manuel Goepfert

Contact : metmap@orbifly.com




SOURCES & CREDITS :

   NOAA